KDBN/DBN METAR and TAF weather

Enter ICAO airport designator
Station Type Date Time Source
KDBN METAR 2018/06/25 17:15 UTC NOAA

KDBN 251715Z AUTO 30006KT 10SM SCT050 34/21 A3012 RMK AO2


Station Type Date Time Source
KDBN Decoded METAR 2018/06/25 17:15 UTC NOAA

Dublin, W H 'Bud' Barron Airport, GA, United States (KDBN) 32-33-52N 082-59-06W
Jun 25, 2018 - 01:15 PM EDT / 2018.06.25 1715 UTC
Wind: from the WNW (300 degrees) at 7 MPH (6 KT):0
Visibility: 10 mile(s):0
Sky conditions: partly cloudy
Temperature: 93 F (34 C)
Heat index: 98.4 F (36.9 C):1
Dew Point: 69 F (21 C)
Relative Humidity: 46%
Pressure (altimeter): 30.12 in. Hg (1019 hPa)
ob: KDBN 251715Z AUTO 30006KT 10SM SCT050 34/21 A3012 RMK AO2
cycle: 17

Station Type Date Time Source
KDBN TAF UTC NOAA

Error!


Example: see airport list